sensor_id;sensor_type;location;lat;lon;timestamp;P1;durP1;ratioP1;P2;durP2;ratioP2
32198;SDS011;73953;42.656;21.156;2024-01-15T00:00:34;98.55;;;58.05;;
32198;SDS011;73953;42.656;21.156;2024-01-15T00:03:01;83.22;;;51.28;;
32198;SDS011;73953;42.656;21.156;2024-01-15T00:05:29;79.30;;;48.50;;
32198;SDS011;73953;42.656;21.156;2024-01-15T00:07:56;71.95;;;43.10;;
32198;SDS011;73953;42.656;21.156;2024-01-15T00:10:23;65.72;;;41.10;;
32198;SDS011;73953;42.656;21.156;2024-01-15T00:12:50;63.17;;;38.00;;
32198;SDS011;73953;42.656;21.156;2024-01-15T00:15:17;60.50;;;37.17;;
32198;SDS011;73953;42.656;21.156;2024-01-15T00:17:45;62.45;;;37.35;;
32198;SDS011;73953;42.656;21.156;2024-01-15T00:20:14;68.72;;;40.25;;
32198;SDS011;73953;42.656;21.156;2024-01-15T00:22:41;70.80;;;42.28;;
32198;SDS011;73953;42.656;21.156;2024-01-15T00:25:08;71.35;;;41.17;;
32198;SDS011;73953;42.656;21.156;2024-01-15T00:27:35;69.45;;;41.13;;
32198;SDS011;73953;42.656;21.156;2024-01-15T00:30:03;66.15;;;41.45;;
32198;SDS011;73953;42.656;21.156;2024-01-15T00:32:31;68.40;;;41.28;;
32198;SDS011;73953;42.656;21.156;2024-01-15T00:34:58;66.70;;;41.53;;
32198;SDS011;73953;42.656;21.156;2024-01-15T00:37:25;64.65;;;41.53;;
32198;SDS011;73953;42.656;21.156;2024-01-15T00:39:52;67.40;;;43.03;;
32198;SDS011;73953;42.656;21.156;2024-01-15T00:42:19;66.13;;;42.42;;
32198;SDS011;73953;42.656;21.156;2024-01-15T00:44:46;73.65;;;45.72;;
32198;SDS011;73953;42.656;21.156;2024-01-15T00:47:15;77.45;;;47.08;;
32198;SDS011;73953;42.656;21.156;2024-01-15T00:49:44;72.60;;;46.10;;
32198;SDS011;73953;42.656;21.156;2024-01-15T00:52:11;74.47;;;45.42;;
32198;SDS011;73953;42.656;21.156;2024-01-15T00:54:39;73.78;;;45.30;;
32198;SDS011;73953;42.656;21.156;2024-01-15T00:57:06;73.78;;;47.58;;
32198;SDS011;73953;42.656;21.156;2024-01-15T00:59:33;76.32;;;47.92;;
32198;SDS011;73953;42.656;21.156;2024-01-15T01:02:01;82.43;;;50.13;;
32198;SDS011;73953;42.656;21.156;2024-01-15T01:04:29;78.28;;;49.72;;
32198;SDS011;73953;42.656;21.156;2024-01-15T01:06:56;78.82;;;50.25;;
32198;SDS011;73953;42.656;21.156;2024-01-15T01:09:23;86.00;;;52.03;;
32198;SDS011;73953;42.656;21.156;2024-01-15T01:11:51;87.47;;;53.22;;
32198;SDS011;73953;42.656;21.156;2024-01-15T01:14:18;83.57;;;52.38;;
32198;SDS011;73953;42.656;21.156;2024-01-15T01:16:45;90.55;;;53.20;;
32198;SDS011;73953;42.656;21.156;2024-01-15T01:19:12;80.68;;;50.00;;
32198;SDS011;73953;42.656;21.156;2024-01-15T01:21:39;90.40;;;50.75;;
32198;SDS011;73953;42.656;21.156;2024-01-15T01:24:06;89.40;;;52.78;;
32198;SDS011;73953;42.656;21.156;2024-01-15T01:26:33;91.03;;;54.83;;
32198;SDS011;73953;42.656;21.156;2024-01-15T01:29:00;103.68;;;61.08;;
32198;SDS011;73953;42.656;21.156;2024-01-15T01:31:27;104.32;;;60.85;;
32198;SDS011;73953;42.656;21.156;2024-01-15T01:33:55;97.20;;;60.05;;
32198;SDS011;73953;42.656;21.156;2024-01-15T01:36:22;97.70;;;59.88;;
32198;SDS011;73953;42.656;21.156;2024-01-15T01:38:49;91.80;;;53.65;;
32198;SDS011;73953;42.656;21.156;2024-01-15T01:41:16;91.03;;;54.40;;
32198;SDS011;73953;42.656;21.156;2024-01-15T01:43:43;123.40;;;68.68;;
32198;SDS011;73953;42.656;21.156;2024-01-15T01:46:10;126.05;;;68.53;;
32198;SDS011;73953;42.656;21.156;2024-01-15T01:48:38;103.93;;;59.95;;
32198;SDS011;73953;42.656;21.156;2024-01-15T01:51:06;98.72;;;57.05;;
32198;SDS011;73953;42.656;21.156;2024-01-15T01:53:34;98.47;;;57.80;;
32198;SDS011;73953;42.656;21.156;2024-01-15T01:56:02;92.07;;;56.17;;
32198;SDS011;73953;42.656;21.156;2024-01-15T01:58:32;94.53;;;58.17;;
32198;SDS011;73953;42.656;21.156;2024-01-15T02:00:59;91.47;;;57.28;;
32198;SDS011;73953;42.656;21.156;2024-01-15T02:03:27;97.80;;;57.15;;
32198;SDS011;73953;42.656;21.156;2024-01-15T02:05:54;88.82;;;54.33;;
32198;SDS011;73953;42.656;21.156;2024-01-15T02:08:22;97.07;;;57.90;;
32198;SDS011;73953;42.656;21.156;2024-01-15T02:10:49;94.78;;;56.95;;
32198;SDS011;73953;42.656;21.156;2024-01-15T02:13:16;99.32;;;57.97;;
32198;SDS011;73953;42.656;21.156;2024-01-15T02:15:44;96.45;;;58.38;;
32198;SDS011;73953;42.656;21.156;2024-01-15T02:18:11;98.95;;;59.00;;
32198;SDS011;73953;42.656;21.156;2024-01-15T02:20:38;105.43;;;63.80;;
32198;SDS011;73953;42.656;21.156;2024-01-15T02:23:07;108.63;;;63.83;;
32198;SDS011;73953;42.656;21.156;2024-01-15T02:25:46;107.60;;;66.22;;
32198;SDS011;73953;42.656;21.156;2024-01-15T02:28:16;102.95;;;64.40;;
32198;SDS011;73953;42.656;21.156;2024-01-15T02:30:44;102.30;;;63.10;;
32198;SDS011;73953;42.656;21.156;2024-01-15T02:33:11;108.97;;;63.20;;
32198;SDS011;73953;42.656;21.156;2024-01-15T02:35:39;104.25;;;60.90;;
32198;SDS011;73953;42.656;21.156;2024-01-15T02:38:07;118.57;;;69.63;;
32198;SDS011;73953;42.656;21.156;2024-01-15T02:40:34;111.10;;;66.75;;
32198;SDS011;73953;42.656;21.156;2024-01-15T02:43:01;99.30;;;62.05;;
32198;SDS011;73953;42.656;21.156;2024-01-15T02:45:28;103.43;;;61.85;;
32198;SDS011;73953;42.656;21.156;2024-01-15T02:47:56;109.38;;;63.25;;
32198;SDS011;73953;42.656;21.156;2024-01-15T02:50:23;106.50;;;63.35;;
32198;SDS011;73953;42.656;21.156;2024-01-15T02:52:50;102.43;;;61.80;;
32198;SDS011;73953;42.656;21.156;2024-01-15T02:55:17;99.00;;;61.30;;
32198;SDS011;73953;42.656;21.156;2024-01-15T02:57:44;103.50;;;60.58;;
32198;SDS011;73953;42.656;21.156;2024-01-15T03:00:11;95.43;;;58.53;;
32198;SDS011;73953;42.656;21.156;2024-01-15T03:02:40;95.63;;;58.97;;
32198;SDS011;73953;42.656;21.156;2024-01-15T03:05:11;98.38;;;58.50;;
32198;SDS011;73953;42.656;21.156;2024-01-15T03:07:38;96.20;;;58.40;;
32198;SDS011;73953;42.656;21.156;2024-01-15T03:10:05;93.10;;;57.13;;
32198;SDS011;73953;42.656;21.156;2024-01-15T03:12:32;92.78;;;56.00;;
32198;SDS011;73953;42.656;21.156;2024-01-15T03:15:00;95.75;;;56.75;;
32198;SDS011;73953;42.656;21.156;2024-01-15T03:17:27;101.38;;;59.10;;
32198;SDS011;73953;42.656;21.156;2024-01-15T03:19:54;104.72;;;61.85;;
32198;SDS011;73953;42.656;21.156;2024-01-15T03:22:21;92.90;;;57.92;;
32198;SDS011;73953;42.656;21.156;2024-01-15T03:24:48;86.95;;;54.92;;
32198;SDS011;73953;42.656;21.156;2024-01-15T03:27:15;88.60;;;54.05;;
32198;SDS011;73953;42.656;21.156;2024-01-15T03:29:42;82.00;;;51.95;;
32198;SDS011;73953;42.656;21.156;2024-01-15T03:32:09;82.43;;;52.53;;
32198;SDS011;73953;42.656;21.156;2024-01-15T03:34:36;91.55;;;54.60;;
32198;SDS011;73953;42.656;21.156;2024-01-15T03:37:03;87.00;;;53.30;;
32198;SDS011;73953;42.656;21.156;2024-01-15T03:39:30;79.43;;;51.25;;
32198;SDS011;73953;42.656;21.156;2024-01-15T03:41:58;77.28;;;50.33;;
32198;SDS011;73953;42.656;21.156;2024-01-15T03:44:25;77.03;;;48.80;;
32198;SDS011;73953;42.656;21.156;2024-01-15T03:46:52;78.28;;;48.35;;
32198;SDS011;73953;42.656;21.156;2024-01-15T03:49:19;80.40;;;49.10;;
32198;SDS011;73953;42.656;21.156;2024-01-15T03:51:46;77.20;;;49.25;;
32198;SDS011;73953;42.656;21.156;2024-01-15T03:54:13;78.68;;;49.08;;
32198;SDS011;73953;42.656;21.156;2024-01-15T03:56:42;78.65;;;49.42;;
32198;SDS011;73953;42.656;21.156;2024-01-15T03:59:09;76.10;;;49.65;;
32198;SDS011;73953;42.656;21.156;2024-01-15T04:01:36;81.32;;;52.72;;
32198;SDS011;73953;42.656;21.156;2024-01-15T04:04:03;80.85;;;51.38;;
32198;SDS011;73953;42.656;21.156;2024-01-15T04:06:30;76.20;;;49.75;;
32198;SDS011;73953;42.656;21.156;2024-01-15T04:08:58;74.18;;;47.40;;
32198;SDS011;73953;42.656;21.156;2024-01-15T04:11:25;73.95;;;48.22;;
32198;SDS011;73953;42.656;21.156;2024-01-15T04:13:52;73.22;;;49.15;;
32198;SDS011;73953;42.656;21.156;2024-01-15T04:16:19;73.47;;;46.25;;
32198;SDS011;73953;42.656;21.156;2024-01-15T04:18:46;72.18;;;45.97;;
32198;SDS011;73953;42.656;21.156;2024-01-15T04:21:14;72.97;;;46.47;;
32198;SDS011;73953;42.656;21.156;2024-01-15T04:23:41;75.35;;;47.35;;
32198;SDS011;73953;42.656;21.156;2024-01-15T04:26:08;72.20;;;46.22;;
32198;SDS011;73953;42.656;21.156;2024-01-15T04:28:35;76.05;;;47.38;;
32198;SDS011;73953;42.656;21.156;2024-01-15T04:31:01;74.65;;;47.33;;
32198;SDS011;73953;42.656;21.156;2024-01-15T04:33:29;87.30;;;53.90;;
32198;SDS011;73953;42.656;21.156;2024-01-15T04:35:56;80.82;;;52.90;;
32198;SDS011;73953;42.656;21.156;2024-01-15T04:38:24;84.22;;;50.17;;
32198;SDS011;73953;42.656;21.156;2024-01-15T04:40:51;82.63;;;49.00;;
32198;SDS011;73953;42.656;21.156;2024-01-15T04:45:49;74.68;;;44.67;;
32198;SDS011;73953;42.656;21.156;2024-01-15T04:48:17;77.43;;;46.40;;
32198;SDS011;73953;42.656;21.156;2024-01-15T04:50:43;75.18;;;45.33;;
32198;SDS011;73953;42.656;21.156;2024-01-15T04:53:10;67.03;;;43.00;;
32198;SDS011;73953;42.656;21.156;2024-01-15T04:55:39;68.88;;;43.53;;
32198;SDS011;73953;42.656;21.156;2024-01-15T04:58:06;74.65;;;44.35;;
32198;SDS011;73953;42.656;21.156;2024-01-15T05:00:33;69.80;;;43.08;;
32198;SDS011;73953;42.656;21.156;2024-01-15T05:03:00;72.57;;;43.83;;
32198;SDS011;73953;42.656;21.156;2024-01-15T05:05:29;70.95;;;45.00;;
32198;SDS011;73953;42.656;21.156;2024-01-15T05:07:58;68.22;;;43.25;;
32198;SDS011;73953;42.656;21.156;2024-01-15T05:10:25;72.22;;;42.22;;
32198;SDS011;73953;42.656;21.156;2024-01-15T05:12:52;69.13;;;40.67;;
32198;SDS011;73953;42.656;21.156;2024-01-15T05:15:19;64.18;;;40.50;;
32198;SDS011;73953;42.656;21.156;2024-01-15T05:17:46;62.35;;;38.47;;
32198;SDS011;73953;42.656;21.156;2024-01-15T05:20:15;61.83;;;37.72;;
32198;SDS011;73953;42.656;21.156;2024-01-15T05:22:42;54.58;;;35.15;;
32198;SDS011;73953;42.656;21.156;2024-01-15T05:25:09;55.13;;;32.60;;
32198;SDS011;73953;42.656;21.156;2024-01-15T05:27:36;51.22;;;33.50;;
32198;SDS011;73953;42.656;21.156;2024-01-15T05:30:04;56.20;;;32.22;;
32198;SDS011;73953;42.656;21.156;2024-01-15T05:32:31;53.15;;;34.80;;
32198;SDS011;73953;42.656;21.156;2024-01-15T05:34:58;56.60;;;34.30;;
32198;SDS011;73953;42.656;21.156;2024-01-15T05:37:26;58.65;;;34.63;;
32198;SDS011;73953;42.656;21.156;2024-01-15T05:39:53;59.47;;;36.25;;
32198;SDS011;73953;42.656;21.156;2024-01-15T05:42:20;56.80;;;34.92;;
32198;SDS011;73953;42.656;21.156;2024-01-15T05:44:47;58.80;;;36.63;;
32198;SDS011;73953;42.656;21.156;2024-01-15T05:47:14;54.83;;;35.10;;
32198;SDS011;73953;42.656;21.156;2024-01-15T05:49:41;55.22;;;35.70;;
32198;SDS011;73953;42.656;21.156;2024-01-15T05:52:08;66.65;;;39.83;;
32198;SDS011;73953;42.656;21.156;2024-01-15T05:54:35;62.63;;;40.08;;
32198;SDS011;73953;42.656;21.156;2024-01-15T05:57:02;65.13;;;39.60;;
32198;SDS011;73953;42.656;21.156;2024-01-15T05:59:29;66.78;;;40.30;;
32198;SDS011;73953;42.656;21.156;2024-01-15T06:01:59;60.33;;;37.67;;
32198;SDS011;73953;42.656;21.156;2024-01-15T06:04:26;62.97;;;38.33;;
32198;SDS011;73953;42.656;21.156;2024-01-15T06:06:53;66.00;;;38.20;;
32198;SDS011;73953;42.656;21.156;2024-01-15T06:09:20;62.03;;;37.88;;
32198;SDS011;73953;42.656;21.156;2024-01-15T06:11:47;57.88;;;36.90;;
32198;SDS011;73953;42.656;21.156;2024-01-15T06:14:14;62.85;;;38.33;;
32198;SDS011;73953;42.656;21.156;2024-01-15T06:16:41;63.25;;;37.53;;
32198;SDS011;73953;42.656;21.156;2024-01-15T06:19:08;62.25;;;38.13;;
32198;SDS011;73953;42.656;21.156;2024-01-15T06:21:35;65.72;;;39.83;;
32198;SDS011;73953;42.656;21.156;2024-01-15T06:24:03;68.80;;;40.83;;
32198;SDS011;73953;42.656;21.156;2024-01-15T06:26:30;63.17;;;39.03;;
32198;SDS011;73953;42.656;21.156;2024-01-15T06:28:57;65.88;;;41.20;;
32198;SDS011;73953;42.656;21.156;2024-01-15T06:31:24;63.15;;;39.85;;
32198;SDS011;73953;42.656;21.156;2024-01-15T06:33:51;64.25;;;40.15;;
32198;SDS011;73953;42.656;21.156;2024-01-15T06:36:18;70.70;;;40.60;;
32198;SDS011;73953;42.656;21.156;2024-01-15T06:38:45;65.65;;;39.83;;
32198;SDS011;73953;42.656;21.156;2024-01-15T06:41:12;64.03;;;40.08;;
32198;SDS011;73953;42.656;21.156;2024-01-15T06:43:39;65.60;;;39.92;;
32198;SDS011;73953;42.656;21.156;2024-01-15T06:46:07;61.28;;;37.78;;
32198;SDS011;73953;42.656;21.156;2024-01-15T06:48:34;66.82;;;39.58;;
32198;SDS011;73953;42.656;21.156;2024-01-15T06:51:02;66.70;;;41.38;;
32198;SDS011;73953;42.656;21.156;2024-01-15T06:53:30;64.72;;;40.33;;
32198;SDS011;73953;42.656;21.156;2024-01-15T06:55:57;44.88;;;27.02;;
32198;SDS011;73953;42.656;21.156;2024-01-15T06:58:24;68.65;;;40.30;;
32198;SDS011;73953;42.656;21.156;2024-01-15T07:00:51;63.00;;;38.72;;
32198;SDS011;73953;42.656;21.156;2024-01-15T07:03:18;67.30;;;39.60;;
32198;SDS011;73953;42.656;21.156;2024-01-15T07:05:46;62.28;;;38.58;;
32198;SDS011;73953;42.656;21.156;2024-01-15T07:08:13;62.97;;;38.60;;
32198;SDS011;73953;42.656;21.156;2024-01-15T07:10:40;60.22;;;37.40;;
32198;SDS011;73953;42.656;21.156;2024-01-15T07:13:10;63.70;;;38.67;;
32198;SDS011;73953;42.656;21.156;2024-01-15T07:15:37;59.75;;;35.75;;
32198;SDS011;73953;42.656;21.156;2024-01-15T07:18:04;64.18;;;36.95;;
32198;SDS011;73953;42.656;21.156;2024-01-15T07:20:31;66.40;;;38.92;;
32198;SDS011;73953;42.656;21.156;2024-01-15T07:22:58;57.35;;;35.08;;
32198;SDS011;73953;42.656;21.156;2024-01-15T07:25:25;75.15;;;40.63;;
32198;SDS011;73953;42.656;21.156;2024-01-15T07:27:53;63.38;;;37.78;;
32198;SDS011;73953;42.656;21.156;2024-01-15T07:30:21;67.93;;;38.72;;
32198;SDS011;73953;42.656;21.156;2024-01-15T07:32:51;69.40;;;41.47;;
32198;SDS011;73953;42.656;21.156;2024-01-15T07:35:20;73.03;;;41.05;;
32198;SDS011;73953;42.656;21.156;2024-01-15T07:37:47;104.00;;;62.53;;
32198;SDS011;73953;42.656;21.156;2024-01-15T07:40:14;81.78;;;44.05;;
32198;SDS011;73953;42.656;21.156;2024-01-15T07:42:42;77.65;;;43.05;;
32198;SDS011;73953;42.656;21.156;2024-01-15T07:45:10;71.05;;;40.53;;
32198;SDS011;73953;42.656;21.156;2024-01-15T07:47:37;72.35;;;41.90;;
32198;SDS011;73953;42.656;21.156;2024-01-15T07:50:04;76.15;;;41.78;;
32198;SDS011;73953;42.656;21.156;2024-01-15T07:52:32;73.88;;;37.75;;
32198;SDS011;73953;42.656;21.156;2024-01-15T07:54:59;57.10;;;34.13;;
32198;SDS011;73953;42.656;21.156;2024-01-15T07:57:27;60.05;;;34.47;;
32198;SDS011;73953;42.656;21.156;2024-01-15T07:59:54;57.90;;;34.65;;
32198;SDS011;73953;42.656;21.156;2024-01-15T08:02:21;59.00;;;33.88;;
32198;SDS011;73953;42.656;21.156;2024-01-15T08:04:48;58.85;;;34.70;;
32198;SDS011;73953;42.656;21.156;2024-01-15T08:07:15;62.85;;;35.47;;
32198;SDS011;73953;42.656;21.156;2024-01-15T08:09:43;67.13;;;36.25;;
32198;SDS011;73953;42.656;21.156;2024-01-15T08:12:10;103.70;;;48.63;;
32198;SDS011;73953;42.656;21.156;2024-01-15T08:14:38;189.45;;;75.43;;
32198;SDS011;73953;42.656;21.156;2024-01-15T08:17:05;99.63;;;56.60;;
32198;SDS011;73953;42.656;21.156;2024-01-15T08:19:33;176.32;;;65.65;;
32198;SDS011;73953;42.656;21.156;2024-01-15T08:22:00;75.35;;;39.47;;
32198;SDS011;73953;42.656;21.156;2024-01-15T08:24:27;104.00;;;47.03;;
32198;SDS011;73953;42.656;21.156;2024-01-15T08:26:55;127.57;;;51.95;;
32198;SDS011;73953;42.656;21.156;2024-01-15T08:29:23;81.82;;;42.03;;
32198;SDS011;73953;42.656;21.156;2024-01-15T08:31:54;149.65;;;58.53;;
32198;SDS011;73953;42.656;21.156;2024-01-15T08:34:21;107.40;;;47.55;;
32198;SDS011;73953;42.656;21.156;2024-01-15T08:36:48;121.90;;;64.80;;
32198;SDS011;73953;42.656;21.156;2024-01-15T08:39:15;206.05;;;78.00;;
32198;SDS011;73953;42.656;21.156;2024-01-15T08:41:42;100.65;;;47.72;;
32198;SDS011;73953;42.656;21.156;2024-01-15T08:44:09;91.00;;;46.20;;
32198;SDS011;73953;42.656;21.156;2024-01-15T08:46:36;86.10;;;44.50;;
32198;SDS011;73953;42.656;21.156;2024-01-15T08:49:04;80.05;;;40.60;;
32198;SDS011;73953;42.656;21.156;2024-01-15T08:51:32;77.78;;;41.90;;
32198;SDS011;73953;42.656;21.156;2024-01-15T08:54:00;89.82;;;44.80;;
32198;SDS011;73953;42.656;21.156;2024-01-15T08:56:27;182.75;;;73.65;;
32198;SDS011;73953;42.656;21.156;2024-01-15T08:58:54;149.55;;;69.80;;
32198;SDS011;73953;42.656;21.156;2024-01-15T09:01:21;96.15;;;47.03;;
32198;SDS011;73953;42.656;21.156;2024-01-15T09:03:50;120.88;;;61.08;;
32198;SDS011;73953;42.656;21.156;2024-01-15T09:06:17;64.88;;;37.38;;
32198;SDS011;73953;42.656;21.156;2024-01-15T09:08:44;84.30;;;41.22;;
32198;SDS011;73953;42.656;21.156;2024-01-15T09:11:11;98.82;;;48.33;;
32198;SDS011;73953;42.656;21.156;2024-01-15T09:13:39;86.40;;;44.10;;
32198;SDS011;73953;42.656;21.156;2024-01-15T09:16:06;105.05;;;48.75;;
32198;SDS011;73953;42.656;21.156;2024-01-15T09:18:33;89.18;;;46.63;;
32198;SDS011;73953;42.656;21.156;2024-01-15T09:21:01;121.20;;;60.33;;
32198;SDS011;73953;42.656;21.156;2024-01-15T09:23:28;119.82;;;55.38;;
32198;SDS011;73953;42.656;21.156;2024-01-15T09:25:55;149.95;;;76.20;;
32198;SDS011;73953;42.656;21.156;2024-01-15T09:28:22;100.20;;;47.20;;
32198;SDS011;73953;42.656;21.156;2024-01-15T09:30:49;110.55;;;54.33;;
32198;SDS011;73953;42.656;21.156;2024-01-15T09:33:17;136.25;;;68.05;;
32198;SDS011;73953;42.656;21.156;2024-01-15T09:35:44;100.70;;;51.33;;
32198;SDS011;73953;42.656;21.156;2024-01-15T09:38:12;120.82;;;58.33;;
32198;SDS011;73953;42.656;21.156;2024-01-15T09:40:39;108.47;;;53.72;;
32198;SDS011;73953;42.656;21.156;2024-01-15T09:43:09;110.95;;;52.20;;
32198;SDS011;73953;42.656;21.156;2024-01-15T09:45:37;110.70;;;56.92;;
32198;SDS011;73953;42.656;21.156;2024-01-15T09:48:04;113.50;;;55.40;;
32198;SDS011;73953;42.656;21.156;2024-01-15T09:50:32;105.40;;;51.95;;
32198;SDS011;73953;42.656;21.156;2024-01-15T09:52:59;113.43;;;54.90;;
32198;SDS011;73953;42.656;21.156;2024-01-15T09:55:27;126.53;;;60.70;;
32198;SDS011;73953;42.656;21.156;2024-01-15T09:57:55;121.82;;;59.22;;
32198;SDS011;73953;42.656;21.156;2024-01-15T10:00:22;100.03;;;48.53;;
32198;SDS011;73953;42.656;21.156;2024-01-15T10:02:50;91.88;;;47.05;;
32198;SDS011;73953;42.656;21.156;2024-01-15T10:05:17;94.72;;;48.28;;
32198;SDS011;73953;42.656;21.156;2024-01-15T10:07:44;193.55;;;88.28;;
32198;SDS011;73953;42.656;21.156;2024-01-15T10:10:12;142.05;;;72.63;;
32198;SDS011;73953;42.656;21.156;2024-01-15T10:12:40;121.20;;;60.80;;
32198;SDS011;73953;42.656;21.156;2024-01-15T10:15:09;97.93;;;51.35;;
32198;SDS011;73953;42.656;21.156;2024-01-15T10:17:37;136.50;;;65.25;;
32198;SDS011;73953;42.656;21.156;2024-01-15T10:20:11;155.48;;;78.68;;
32198;SDS011;73953;42.656;21.156;2024-01-15T10:22:42;321.85;;;156.82;;
32198;SDS011;73953;42.656;21.156;2024-01-15T10:25:11;216.63;;;107.38;;
32198;SDS011;73953;42.656;21.156;2024-01-15T10:27:38;253.55;;;116.07;;
32198;SDS011;73953;42.656;21.156;2024-01-15T10:30:07;130.82;;;63.47;;
32198;SDS011;73953;42.656;21.156;2024-01-15T10:32:34;129.27;;;64.78;;
32198;SDS011;73953;42.656;21.156;2024-01-15T10:35:01;149.23;;;76.90;;
32198;SDS011;73953;42.656;21.156;2024-01-15T10:37:32;146.13;;;71.10;;
32198;SDS011;73953;42.656;21.156;2024-01-15T10:40:02;138.85;;;70.40;;
32198;SDS011;73953;42.656;21.156;2024-01-15T10:42:32;231.48;;;105.95;;
32198;SDS011;73953;42.656;21.156;2024-01-15T10:44:59;162.02;;;82.07;;
32198;SDS011;73953;42.656;21.156;2024-01-15T10:47:26;73.32;;;39.38;;
32198;SDS011;73953;42.656;21.156;2024-01-15T10:49:55;71.25;;;37.75;;
32198;SDS011;73953;42.656;21.156;2024-01-15T10:52:24;72.10;;;37.35;;
32198;SDS011;73953;42.656;21.156;2024-01-15T10:54:53;60.67;;;33.85;;
32198;SDS011;73953;42.656;21.156;2024-01-15T10:57:23;170.90;;;81.20;;
32198;SDS011;73953;42.656;21.156;2024-01-15T10:59:51;170.27;;;77.05;;
32198;SDS011;73953;42.656;21.156;2024-01-15T11:02:18;106.43;;;52.78;;
32198;SDS011;73953;42.656;21.156;2024-01-15T11:04:45;150.65;;;69.40;;
32198;SDS011;73953;42.656;21.156;2024-01-15T11:07:13;116.40;;;56.53;;
32198;SDS011;73953;42.656;21.156;2024-01-15T11:09:41;263.05;;;122.90;;
32198;SDS011;73953;42.656;21.156;2024-01-15T11:12:09;285.50;;;121.88;;
32198;SDS011;73953;42.656;21.156;2024-01-15T11:17:06;74.07;;;37.25;;
32198;SDS011;73953;42.656;21.156;2024-01-15T11:19:37;103.43;;;53.90;;
32198;SDS011;73953;42.656;21.156;2024-01-15T11:22:07;91.78;;;50.65;;
32198;SDS011;73953;42.656;21.156;2024-01-15T11:24:36;88.63;;;45.47;;
32198;SDS011;73953;42.656;21.156;2024-01-15T11:27:04;146.43;;;67.32;;
32198;SDS011;73953;42.656;21.156;2024-01-15T11:29:32;144.85;;;70.53;;
32198;SDS011;73953;42.656;21.156;2024-01-15T11:32:02;78.70;;;42.03;;
32198;SDS011;73953;42.656;21.156;2024-01-15T11:37:17;53.78;;;29.73;;
32198;SDS011;73953;42.656;21.156;2024-01-15T11:39:45;55.38;;;28.17;;
32198;SDS011;73953;42.656;21.156;2024-01-15T11:42:13;45.92;;;25.25;;
32198;SDS011;73953;42.656;21.156;2024-01-15T11:44:41;50.05;;;27.75;;
32198;SDS011;73953;42.656;21.156;2024-01-15T11:47:09;93.85;;;44.20;;
32198;SDS011;73953;42.656;21.156;2024-01-15T11:50:01;77.18;;;37.50;;
32198;SDS011;73953;42.656;21.156;2024-01-15T11:52:33;49.60;;;27.40;;
32198;SDS011;73953;42.656;21.156;2024-01-15T11:57:52;65.75;;;33.35;;
32198;SDS011;73953;42.656;21.156;2024-01-15T12:00:21;51.80;;;24.15;;
32198;SDS011;73953;42.656;21.156;2024-01-15T12:02:53;73.93;;;33.22;;
32198;SDS011;73953;42.656;21.156;2024-01-15T12:05:26;38.30;;;20.30;;
32198;SDS011;73953;42.656;21.156;2024-01-15T12:07:53;54.50;;;25.73;;
32198;SDS011;73953;42.656;21.156;2024-01-15T12:10:20;39.65;;;19.77;;
32198;SDS011;73953;42.656;21.156;2024-01-15T12:15:22;25.42;;;14.75;;
32198;SDS011;73953;42.656;21.156;2024-01-15T12:20:26;17.08;;;10.65;;
32198;SDS011;73953;42.656;21.156;2024-01-15T12:22:53;28.42;;;13.23;;
32198;SDS011;73953;42.656;21.156;2024-01-15T12:25:29;24.42;;;11.98;;
32198;SDS011;73953;42.656;21.156;2024-01-15T12:27:56;21.98;;;9.65;;
32198;SDS011;73953;42.656;21.156;2024-01-15T12:30:28;23.35;;;12.32;;
32198;SDS011;73953;42.656;21.156;2024-01-15T12:32:55;19.08;;;9.98;;
32198;SDS011;73953;42.656;21.156;2024-01-15T12:35:23;18.27;;;10.50;;
32198;SDS011;73953;42.656;21.156;2024-01-15T12:37:51;18.27;;;10.30;;
32198;SDS011;73953;42.656;21.156;2024-01-15T12:40:18;39.67;;;17.10;;
32198;SDS011;73953;42.656;21.156;2024-01-15T12:42:46;46.97;;;20.20;;
32198;SDS011;73953;42.656;21.156;2024-01-15T12:45:13;24.52;;;13.43;;
32198;SDS011;73953;42.656;21.156;2024-01-15T12:47:41;34.05;;;17.25;;
32198;SDS011;73953;42.656;21.156;2024-01-15T12:50:08;31.52;;;17.40;;
32198;SDS011;73953;42.656;21.156;2024-01-15T12:52:45;21.15;;;11.43;;
32198;SDS011;73953;42.656;21.156;2024-01-15T12:55:13;30.90;;;15.35;;
32198;SDS011;73953;42.656;21.156;2024-01-15T12:57:42;26.23;;;12.70;;
32198;SDS011;73953;42.656;21.156;2024-01-15T13:00:09;40.22;;;18.63;;
32198;SDS011;73953;42.656;21.156;2024-01-15T13:02:41;32.90;;;16.58;;
32198;SDS011;73953;42.656;21.156;2024-01-15T13:05:10;29.27;;;15.13;;
32198;SDS011;73953;42.656;21.156;2024-01-15T13:07:41;33.50;;;15.88;;
32198;SDS011;73953;42.656;21.156;2024-01-15T13:10:10;38.25;;;17.30;;
32198;SDS011;73953;42.656;21.156;2024-01-15T13:12:40;26.17;;;12.95;;
32198;SDS011;73953;42.656;21.156;2024-01-15T13:15:08;28.00;;;13.50;;
32198;SDS011;73953;42.656;21.156;2024-01-15T13:17:41;38.42;;;18.98;;
32198;SDS011;73953;42.656;21.156;2024-01-15T13:20:08;70.82;;;32.83;;
32198;SDS011;73953;42.656;21.156;2024-01-15T13:22:37;50.13;;;23.95;;
32198;SDS011;73953;42.656;21.156;2024-01-15T13:25:06;41.63;;;17.80;;
32198;SDS011;73953;42.656;21.156;2024-01-15T13:27:35;39.40;;;19.20;;
32198;SDS011;73953;42.656;21.156;2024-01-15T13:30:03;32.08;;;18.08;;
32198;SDS011;73953;42.656;21.156;2024-01-15T13:32:31;41.10;;;19.13;;
32198;SDS011;73953;42.656;21.156;2024-01-15T13:34:59;39.25;;;19.38;;
32198;SDS011;73953;42.656;21.156;2024-01-15T13:37:26;43.97;;;20.27;;
32198;SDS011;73953;42.656;21.156;2024-01-15T13:39:54;38.80;;;21.15;;
32198;SDS011;73953;42.656;21.156;2024-01-15T13:42:21;57.88;;;27.60;;
32198;SDS011;73953;42.656;21.156;2024-01-15T13:44:49;53.15;;;26.27;;
32198;SDS011;73953;42.656;21.156;2024-01-15T13:47:16;152.05;;;54.28;;
32198;SDS011;73953;42.656;21.156;2024-01-15T13:49:43;124.15;;;45.50;;
32198;SDS011;73953;42.656;21.156;2024-01-15T13:52:11;101.45;;;41.88;;
32198;SDS011;73953;42.656;21.156;2024-01-15T13:54:39;68.85;;;30.83;;
32198;SDS011;73953;42.656;21.156;2024-01-15T13:57:16;88.10;;;37.50;;
32198;SDS011;73953;42.656;21.156;2024-01-15T13:59:43;84.40;;;39.20;;
32198;SDS011;73953;42.656;21.156;2024-01-15T14:02:10;118.18;;;51.25;;
32198;SDS011;73953;42.656;21.156;2024-01-15T14:04:39;86.05;;;38.53;;
32198;SDS011;73953;42.656;21.156;2024-01-15T14:07:08;75.18;;;34.42;;
32198;SDS011;73953;42.656;21.156;2024-01-15T14:09:35;70.03;;;33.22;;
32198;SDS011;73953;42.656;21.156;2024-01-15T14:12:02;60.50;;;30.52;;
32198;SDS011;73953;42.656;21.156;2024-01-15T14:14:29;75.15;;;37.05;;
32198;SDS011;73953;42.656;21.156;2024-01-15T14:16:56;57.65;;;28.90;;
32198;SDS011;73953;42.656;21.156;2024-01-15T14:19:23;44.20;;;22.73;;
32198;SDS011;73953;42.656;21.156;2024-01-15T14:21:50;51.13;;;23.48;;
32198;SDS011;73953;42.656;21.156;2024-01-15T14:24:17;49.40;;;26.02;;